Latest Coastal Weather Observations for Lord Howe Island

IDN60701

Issued at 8:32 pm EST Thursday 28 July 2016 (issued every 10 minutes, with the page automatically refreshed every 10 minutes)

About coastal observations | Map of coastal stations | Coastal observations for NSW | Marine services | Other Formats
Station Details ID: 200839 Name: LORD HOWE ISLAND AERO Lat: -31.54 Lon: 159.08 Height: 5.0 m
Data from the previous 72 hours. | See also: Recent months at Lord Howe Island
Date/Time
EST
Temp
°C
Wind Pressure Rain since
9am
mm
Weather Cloud Vis
km
Sea
Height
m
Swell
Dir  Spd
kts
Gust
kts
hPa Trend Height
m
Period
s
Dir
28/08:30pm 17.7 WSW 9 11 1022.0 - 0.0 - Mostly clear 10 - - - -
28/08:00pm 17.8 WSW 8 10 1022.0 - 0.0 - Partly cloudy 10 - - - -
28/07:30pm 17.7 WSW 7 10 1021.9 - 0.0 - Partly cloudy 10 - - - -
28/07:00pm 17.4 SW 6 7 1021.9 - 0.0 - Partly cloudy 10 - - - -
28/06:30pm 17.3 SW 5 8 1021.7 - 0.0 - Partly cloudy 10 - - - -
28/06:00pm 17.7 SW 9 13 1021.5 - 0.0 - Partly cloudy 10 - - - -
28/05:30pm 17.7 SW 7 11 1021.1 - 0.0 - Mostly cloudy 10 - - - -
28/05:00pm 17.9 WSW 8 10 1020.9 - 0.0 - Partly cloudy 10 - - - -
28/04:30pm 18.0 SW 7 10 1020.7 - 0.0 Showers Partly cloudy 10 - - - -
28/04:00pm 18.3 SW 7 11 1020.4 - 0.0 - Partly cloudy 10 - - - -
28/03:30pm 19.2 SW 8 15 1020.3 - 0.0 - Partly cloudy 10 - - - -
28/03:00pm 18.8 SW 9 13 1020.2 - 0.0 - Partly cloudy 10 - - - -
28/02:30pm 18.9 SW 9 14 1020.1 - 0.0 - Cloudy 10 - - - -
28/02:00pm 18.5 SW 9 14 1020.1 - 0.0 - Partly cloudy 10 - - - -
28/01:30pm 18.5 SW 8 12 1020.1 - 0.0 - Partly cloudy 10 - - - -
28/01:00pm 19.4 SSW 8 13 1020.2 - 0.0 - Partly cloudy 10 - - - -
28/12:30pm 18.9 SW 9 14 1020.4 - 0.0 - Partly cloudy 10 - - - -
28/12:00pm 19.1 SW 10 15 1020.5 - 0.0 - Mostly clear 10 - - - -
28/11:30am 19.2 SW 9 17 1020.7 - 0.0 - Mostly clear 10 - - - -
28/11:00am 18.9 SW 11 18 1021.1 - 0.0 - Mostly clear 10 - - - -
28/10:30am 19.0 SSW 9 16 1021.1 - 0.0 - Partly cloudy 10 - - - -
28/10:00am 18.9 SW 10 15 1021.1 - 0.0 - Partly cloudy 10 - - - -
28/09:30am 18.7 SSW 9 16 1021.1 - 0.0 - Partly cloudy 10 - - - -
28/09:00am 18.6 SSW 9 13 1020.9 - 0.0 - Partly cloudy 10 - - - -
28/08:30am 18.4 SSW 8 15 1020.9 - 0.0 - Mostly clear 10 - - - -
28/08:00am 18.0 SSW 7 10 1020.6 - 0.0 - Partly cloudy 10 - - - -
28/07:30am 17.3 SSW 9 13 1020.5 - 0.0 - Mostly clear 10 - - - -
28/07:00am 17.0 SSW 9 15 1020.3 - 0.0 - Partly cloudy 10 - - - -
28/06:30am 17.1 SW 14 25 1020.0 - 0.0 - Partly cloudy 10 - - - -
28/06:00am 17.7 SW 11 21 1019.3 - 0.0 - Partly cloudy 10 - - - -
28/05:30am 18.0 SW 12 17 1018.7 - 0.0 - Mostly cloudy 10 - - - -
28/05:00am 18.1 SW 12 18 1018.0 - 0.0 - Partly cloudy 10 - - - -
28/04:30am 18.3 SW 14 20 1017.6 - 0.0 - Partly cloudy 10 - - - -
28/04:00am 18.0 SW 12 17 1017.4 - 0.0 - Partly cloudy 10 - - - -
28/03:30am 18.2 WSW 15 21 1017.1 - 0.0 - Partly cloudy 10 - - - -
28/03:00am 18.1 SW 15 21 1017.3 - 0.0 - - 10 - - - -
28/02:30am 18.1 WSW 14 19 1017.1 - 0.0 - Mostly clear 10 - - - -
28/02:00am 18.3 WSW 16 24 1017.2 - 0.0 - Partly cloudy 10 - - - -
28/01:30am 18.4 WSW 17 23 1017.2 - 0.0 - Partly cloudy 10 - - - -
28/01:00am 18.2 SW 14 24 1017.2 - 0.0 - Partly cloudy 10 - - - -
28/12:30am 18.4 WSW 16 21 1017.1 - 0.0 - Partly cloudy 10 - - - -
28/12:00am 18.4 WSW 15 21 1017.0 - 0.0 - Partly cloudy 10 - - - -
 
Date/Time
EST
Temp
°C
Wind Pressure Rain since
9am
mm
Weather Cloud Vis
km
Sea
Height
m
Swell
Dir  Spd
kts
Gust
kts
hPa Trend Height
m
Period
s
Dir
27/11:30pm 18.4 WSW 14 19 1017.0 - 0.0 - - 10 - - - -
27/11:00pm 18.6 WSW 17 22 1016.8 - 0.0 - Partly cloudy 10 - - - -
27/10:30pm 18.7 WSW 15 20 1016.8 - 0.0 - Partly cloudy 10 - - - -
27/10:00pm 18.7 WSW 13 17 1016.6 - 0.0 - Partly cloudy 10 - - - -
27/09:30pm 18.5 WSW 12 17 1016.6 - 0.0 - - 10 - - - -
27/09:00pm 18.5 WSW 12 17 1016.6 - 0.0 - Partly cloudy 10 - - - -
27/08:30pm 18.7 WSW 13 18 1016.4 - 0.0 - Partly cloudy 10 - - - -
27/08:00pm 18.8 WSW 15 21 1016.2 - 0.0 - Partly cloudy 10 - - - -
27/07:30pm 18.8 WSW 12 17 1015.8 - 0.0 - Partly cloudy 10 - - - -
27/07:00pm 18.8 SW 11 16 1015.3 - 0.0 - Partly cloudy 10 - - - -
27/06:30pm 19.0 WSW 13 18 1015.0 - 0.0 - Partly cloudy 10 - - - -
27/06:00pm 19.1 WSW 12 16 1014.7 - 0.0 - Partly cloudy 10 - - - -
27/05:30pm 19.1 WSW 14 17 1014.3 - 0.0 - Mostly clear 10 - - - -
27/05:00pm 19.2 WSW 13 16 1014.0 - 0.0 - Partly cloudy 10 - - - -
27/04:30pm 19.3 WSW 16 20 1013.6 - 0.0 - Mostly clear 10 - - - -
27/04:00pm 19.4 WSW 17 20 1013.5 - 0.0 - Mostly clear 10 - - - -
27/03:30pm 19.6 W 15 19 1013.6 - 0.0 - Partly cloudy 10 - - - -
27/03:00pm 19.7 WSW 16 18 1013.4 - 0.0 - Mostly clear 10 - - - -
27/02:30pm 20.0 W 17 21 1013.5 - 0.0 - Partly cloudy 10 - - - -
27/02:15pm 19.9 W 17 22 1013.3 - 0.0 - Partly cloudy 10 - - - -
27/02:00pm 20.0 WNW 7 12 1013.4 - 0.0 - Mostly clear 10 - - - -
27/01:30pm 20.0 NW 8 17 1013.9 - 0.0 - Mostly clear 10 - - - -
27/01:00pm 20.0 NW 8 16 1013.9 - 0.0 - Partly cloudy 10 - - - -
27/12:30pm 19.6 N 7 12 1013.9 - 0.0 - Mostly clear 10 - - - -
27/12:00pm 19.4 NNW 7 11 1014.2 - 0.0 - Mostly clear 10 - - - -
27/11:30am 19.3 NNW 7 16 1015.0 - 0.0 - Cloudy 10 - - - -
27/11:00am 19.2 NNW 7 15 1015.7 - 0.0 - Partly cloudy 10 - - - -
27/10:30am 19.2 NNW 8 17 1016.2 - 0.0 - Mostly clear 10 - - - -
27/10:00am 19.0 N 7 11 1016.3 - 0.0 - Mostly clear 10 - - - -
27/09:30am 18.9 N 7 13 1016.0 - 0.0 - Mostly clear 10 - - - -
27/09:00am 19.0 N 8 14 1016.5 - 0.0 - Mostly clear 10 - - - -
27/08:30am 18.9 N 6 11 1017.0 - 0.0 - Partly cloudy 10 - - - -
27/08:00am 18.7 N 6 11 1017.4 - 0.0 - Mostly clear 10 - - - -
27/07:30am 18.6 N 6 9 1017.5 - 0.0 - Mostly clear 10 - - - -
27/07:00am 18.6 NNW 7 13 1017.9 - 0.0 - Partly cloudy 10 - - - -
27/06:30am 18.6 N 5 9 1017.4 - 0.0 - - 10 - - - -
27/06:00am 18.5 NNW 6 12 1017.6 - 0.0 - Partly cloudy 10 - - - -
27/05:30am 18.2 N 7 11 1017.1 - 0.0 - Mostly cloudy 10 - - - -
27/05:00am 18.1 N 5 7 1017.0 - 0.0 - Partly cloudy 10 - - - -
27/04:30am 18.2 N 5 9 1017.0 - 0.0 - Partly cloudy 10 - - - -
27/04:00am 18.3 N 8 12 1016.7 - 0.0 - Partly cloudy 10 - - - -
27/03:30am 18.3 NNE 7 11 1017.0 - 0.0 - Partly cloudy 10 - - - -
27/03:00am 18.3 NNW 6 10 1017.3 - 0.0 - Partly cloudy 10 - - - -
27/02:30am 18.0 NW 3 6 1017.6 - 0.0 - Mostly clear 10 - - - -
27/02:00am 17.9 N 5 7 1017.4 - 0.0 - - 10 - - - -
27/01:30am 17.7 N 5 9 1017.6 - 0.0 - Partly cloudy 10 - - - -
27/01:00am 17.7 N 5 7 1017.5 - 0.0 - - 10 - - - -
27/12:30am 17.1 N 3 6 1017.7 - 0.0 - - 10 - - - -
27/12:00am 17.5 NNW 3 6 1018.0 - 0.0 - - 10 - - - -
 
Date/Time
EST
Temp
°C
Wind Pressure Rain since
9am
mm
Weather Cloud Vis
km
Sea
Height
m
Swell
Dir  Spd
kts
Gust
kts
hPa Trend Height
m
Period
s
Dir
26/11:30pm 17.6 NNW 5 7 1018.3 - 0.0 - Mostly clear 10 - - - -
26/11:00pm 17.1 NNW 2 7 1018.3 - 0.0 - - 10 - - - -
26/10:30pm 16.9 N 2 5 1018.0 - 0.0 - - 10 - - - -
26/10:00pm 17.0 N 4 7 1018.1 - 0.0 - Partly cloudy 10 - - - -
26/09:30pm 17.6 NNW 3 5 1018.0 - 0.0 - Partly cloudy 10 - - - -
26/09:00pm 17.7 NNW 4 6 1018.3 - 0.0 - Partly cloudy 10 - - - -
26/08:30pm 17.8 NNW 4 8 1018.2 - 0.0 - Partly cloudy 10 - - - -
26/08:00pm 17.8 NNW 5 9 1018.3 - 0.0 - Partly cloudy 10 - - - -
26/07:30pm 17.6 NNW 4 7 1018.5 - 0.0 - Partly cloudy 10 - - - -
26/07:00pm 17.5 WNW 4 9 1018.4 - 0.0 - Partly cloudy 10 - - - -
26/06:30pm 17.9 NW 4 8 1018.2 - 0.0 - Partly cloudy 10 - - - -
26/06:00pm 18.0 WNW 5 8 1018.1 - 0.0 - Partly cloudy 10 - - - -
26/05:30pm 18.1 WNW 5 9 1017.7 - 0.0 - Cloudy 10 - - - -
26/05:00pm 18.2 WNW 6 11 1017.4 - 0.0 - Partly cloudy 10 - - - -
26/04:30pm 18.4 WNW 6 8 1017.1 - 0.0 - Partly cloudy 10 - - - -
26/04:00pm 19.2 WNW 7 10 1016.8 - 0.0 - Partly cloudy 10 - - - -
26/03:30pm 19.4 WNW 7 11 1017.0 - 0.0 - Partly cloudy 10 - - - -
26/03:00pm 19.4 W 10 15 1017.1 - 0.0 - Partly cloudy 10 - - - -
26/02:30pm 20.0 W 10 16 1017.1 - 0.0 - Mostly clear 10 - - - -
26/02:00pm 20.1 W 12 18 1017.0 - 0.0 - Mostly clear 10 - - - -
26/01:30pm 20.3 W 13 17 1017.0 - 0.0 - Mostly clear 10 - - - -
26/01:00pm 20.2 WNW 9 14 1017.1 - 0.0 - Partly cloudy 10 - - - -
26/12:30pm 20.4 WNW 10 14 1017.4 - 0.0 - Mostly clear 10 - - - -
26/12:00pm 20.2 WNW 9 14 1017.7 - 0.0 - Mostly clear 10 - - - -
26/11:30am 20.3 W 11 17 1017.8 - 0.0 - Mostly clear 10 - - - -
26/11:00am 20.1 W 12 17 1018.1 - 0.0 - Mostly clear 10 - - - -
26/10:30am 20.4 W 11 15 1018.6 - 0.0 - Partly cloudy 10 - - - -
26/10:00am 20.1 WNW 8 11 1018.6 - 0.0 - Mostly clear 10 - - - -
26/09:30am 19.5 W 8 13 1018.6 - 0.0 - Partly cloudy 10 - - - -
26/09:00am 19.7 W 10 15 1018.7 - 0.0 - Partly cloudy 10 - - - -
26/08:30am 18.9 W 14 17 1018.5 - 0.0 - Mostly clear 10 - - - -
26/08:00am 18.6 W 14 17 1018.3 - 0.0 - Mostly clear 10 - - - -
26/07:30am 18.6 WSW 13 16 1017.9 - 0.0 - Mostly clear 10 - - - -
26/07:00am 18.3 WSW 12 15 1017.6 - 0.0 - Partly cloudy 10 - - - -
26/06:30am 18.5 W 13 16 1017.6 - 0.0 - Partly cloudy 10 - - - -
26/06:00am 18.4 WSW 13 16 1017.2 - 0.0 - Cloudy 10 - - - -
26/05:30am 18.4 WSW 13 17 1016.8 - 0.0 - Mostly cloudy 10 - - - -
26/05:00am 18.4 WSW 14 20 1016.5 - 0.0 - Cloudy 10 - - - -
26/04:30am 18.3 WSW 14 18 1016.0 - 0.0 - Cloudy 10 - - - -
26/04:00am 18.2 WSW 12 16 1015.4 - 0.0 - Partly cloudy 10 - - - -
26/03:30am 18.1 WSW 13 19 1015.5 - 0.0 - Partly cloudy 10 - - - -
26/03:00am 18.2 WSW 14 19 1015.7 - 0.0 - Partly cloudy 10 - - - -
26/02:30am 18.3 W 17 22 1015.8 - 0.0 - Cloudy 10 - - - -
26/02:00am 18.1 W 17 22 1015.7 - 0.0 - Partly cloudy 10 - - - -
26/01:30am 18.1 WSW 18 21 1015.6 - 0.0 - Partly cloudy 10 - - - -
26/01:00am 17.9 WSW 17 22 1015.7 - 0.0 - - 10 - - - -
26/12:30am 17.9 WSW 18 22 1015.7 - 0.0 - - 10 - - - -
26/12:00am 18.0 WSW 19 25 1015.7 - 0.0 - Partly cloudy 10 - - - -
 
Date/Time
EST
Temp
°C
Wind Pressure Rain since
9am
mm
Weather Cloud Vis
km
Sea
Height
m
Swell
Dir  Spd
kts
Gust
kts
hPa Trend Height
m
Period
s
Dir
25/11:30pm 18.1 WSW 18 22 1015.7 - 0.0 - Mostly cloudy 10 - - - -
25/11:00pm 18.2 WSW 19 24 1015.7 - 0.0 - Partly cloudy 10 - - - -
25/10:30pm 18.0 WSW 19 24 1015.3 - 0.0 - - 10 - - - -
25/10:00pm 18.0 WSW 19 24 1015.1 - 0.0 - Partly cloudy 10 - - - -
25/09:30pm 18.0 WSW 19 23 1015.1 - 0.0 - Partly cloudy 10 - - - -
25/09:00pm 18.0 WSW 19 23 1014.9 - 0.0 - Partly cloudy 10 - - - -
25/08:30pm 18.0 WSW 17 21 1015.0 - 0.0 - - 10 - - - -

Other Formats:

Comma delimited format used in spreadsheet applications
http://www.bom.gov.au/fwo/IDN60701/IDN60701.94995.axf

JavaScript Object Notation format (JSON) in row-major order
http://www.bom.gov.au/fwo/IDN60701/IDN60701.94995.json